createdAt,value
2019-03-22T00:00:13.539Z,7.90
2019-03-22T00:02:42.352Z,7.80
2019-03-22T00:05:10.942Z,7.90
2019-03-22T00:07:39.750Z,7.90
2019-03-22T00:10:08.745Z,7.80
2019-03-22T00:12:37.193Z,7.70
2019-03-22T00:15:07.497Z,7.70
2019-03-22T00:17:35.941Z,7.70
2019-03-22T00:20:08.888Z,7.60
2019-03-22T00:22:37.358Z,7.60
2019-03-22T00:25:06.779Z,7.70
2019-03-22T00:27:35.306Z,7.70
2019-03-22T00:30:09.678Z,7.70
2019-03-22T00:32:38.158Z,7.80
2019-03-22T00:35:07.240Z,7.80
2019-03-22T00:37:35.685Z,7.80
2019-03-22T00:40:05.881Z,7.80
2019-03-22T00:42:34.683Z,7.80
2019-03-22T00:45:04.439Z,7.70
2019-03-22T00:47:33.950Z,7.80
2019-03-22T00:50:02.995Z,7.80
2019-03-22T00:52:31.443Z,7.80
2019-03-22T00:54:59.983Z,7.80
2019-03-22T00:57:28.978Z,7.80
2019-03-22T00:59:57.534Z,7.80
2019-03-22T01:02:26.001Z,7.80
2019-03-22T01:04:54.449Z,7.80
2019-03-22T01:07:22.901Z,7.80
2019-03-22T01:09:51.369Z,7.80
2019-03-22T01:12:19.901Z,7.70
2019-03-22T01:14:48.336Z,7.70
2019-03-22T01:17:16.809Z,7.80
2019-03-22T01:19:45.250Z,7.80
2019-03-22T01:22:13.981Z,7.90
2019-03-22T01:24:42.426Z,7.90
2019-03-22T01:27:11.312Z,7.90
2019-03-22T01:29:39.781Z,7.80
2019-03-22T01:32:08.325Z,7.90
2019-03-22T01:34:37.102Z,7.80
2019-03-22T01:37:05.631Z,7.80
2019-03-22T01:39:34.134Z,7.80
2019-03-22T01:42:02.996Z,7.70
2019-03-22T01:44:31.914Z,7.70
2019-03-22T01:47:00.470Z,7.60
2019-03-22T01:49:29.283Z,7.60
2019-03-22T01:51:57.730Z,7.50
2019-03-22T01:54:26.562Z,7.60
2019-03-22T01:56:55.011Z,7.60
2019-03-22T01:59:23.489Z,7.50
2019-03-22T02:01:51.934Z,7.50
2019-03-22T02:04:20.867Z,7.40
2019-03-22T02:06:49.399Z,7.50
2019-03-22T02:09:17.914Z,7.50
2019-03-22T02:11:46.381Z,7.50
2019-03-22T02:14:14.834Z,7.50
2019-03-22T02:16:43.280Z,7.40
2019-03-22T02:19:11.738Z,7.40
2019-03-22T02:21:41.289Z,7.40
2019-03-22T02:24:10.050Z,7.30
2019-03-22T02:26:38.491Z,7.30
2019-03-22T02:29:07.434Z,7.30
2019-03-22T02:31:36.227Z,7.40
2019-03-22T02:34:04.845Z,7.40
2019-03-22T02:36:33.385Z,7.40
2019-03-22T02:39:01.830Z,7.30
2019-03-22T02:41:30.298Z,7.30
2019-03-22T02:43:59.129Z,7.40
2019-03-22T02:46:27.578Z,7.40
2019-03-22T02:48:56.043Z,7.40
2019-03-22T02:51:24.779Z,7.40
2019-03-22T02:53:53.325Z,7.40
2019-03-22T02:56:21.763Z,7.30
2019-03-22T02:58:50.218Z,7.30
2019-03-22T03:01:18.679Z,7.30
2019-03-22T03:03:47.130Z,7.40
2019-03-22T03:06:15.577Z,7.30
2019-03-22T03:08:44.045Z,7.30
2019-03-22T03:11:12.486Z,7.40
2019-03-22T03:13:40.930Z,7.40
2019-03-22T03:16:09.401Z,7.40
2019-03-22T03:18:37.846Z,7.40
2019-03-22T03:21:06.393Z,7.30
2019-03-22T03:23:35.238Z,7.30
2019-03-22T03:26:03.677Z,7.20
2019-03-22T03:28:36.991Z,7.10
2019-03-22T03:31:02.340Z,7.10
2019-03-22T03:33:30.989Z,7.20
2019-03-22T03:35:59.907Z,7.10
2019-03-22T03:38:28.362Z,7.10
2019-03-22T03:40:56.873Z,7.00
2019-03-22T03:43:25.342Z,6.90
2019-03-22T03:45:53.820Z,6.90
2019-03-22T03:48:22.732Z,6.90
2019-03-22T03:50:51.198Z,6.90
2019-03-22T03:53:19.647Z,6.90
2019-03-22T03:55:48.464Z,6.90
2019-03-22T03:58:16.975Z,6.90
2019-03-22T04:00:45.431Z,7.00
2019-03-22T04:03:13.969Z,7.00
2019-03-22T04:05:42.422Z,6.90
2019-03-22T04:08:11.036Z,6.90
2019-03-22T04:10:39.591Z,6.80
2019-03-22T04:13:08.035Z,6.80
2019-03-22T04:15:37.036Z,6.80
2019-03-22T04:18:05.645Z,6.80
2019-03-22T04:20:34.149Z,6.70
2019-03-22T04:23:02.634Z,6.60
2019-03-22T04:25:31.074Z,6.70
2019-03-22T04:27:59.559Z,6.60
2019-03-22T04:30:28.003Z,6.50
2019-03-22T04:32:56.450Z,6.50
2019-03-22T04:35:24.923Z,6.50
2019-03-22T04:37:53.370Z,6.50
2019-03-22T04:40:29.785Z,6.50
2019-03-22T04:42:58.590Z,6.50
2019-03-22T04:45:29.878Z,6.40
2019-03-22T04:48:04.472Z,6.40
2019-03-22T04:50:35.992Z,6.40
2019-03-22T04:53:05.098Z,6.40
2019-03-22T04:55:34.786Z,6.50
2019-03-22T04:58:04.768Z,6.40
2019-03-22T05:00:34.056Z,6.40
2019-03-22T05:03:03.066Z,6.40
2019-03-22T05:05:31.937Z,6.40
2019-03-22T05:08:00.929Z,6.40
2019-03-22T05:10:29.920Z,6.30
2019-03-22T05:13:00.859Z,6.20
2019-03-22T05:15:31.680Z,6.20
2019-03-22T05:18:02.222Z,6.20
2019-03-22T05:20:32.786Z,6.20
2019-03-22T05:23:02.581Z,6.20
2019-03-22T05:25:31.689Z,6.30
2019-03-22T05:28:02.277Z,6.20
2019-03-22T05:30:53.804Z,6.20
2019-03-22T05:33:22.252Z,6.20
2019-03-22T05:35:50.697Z,6.20
2019-03-22T05:38:19.561Z,6.20
2019-03-22T05:40:48.015Z,6.20
2019-03-22T05:43:16.540Z,6.20
2019-03-22T05:45:45.008Z,6.10
2019-03-22T05:48:13.844Z,6.10
2019-03-22T05:50:42.334Z,6.10
2019-03-22T05:53:10.789Z,6.10
2019-03-22T05:55:39.305Z,6.10
2019-03-22T05:58:07.802Z,6.10
2019-03-22T06:00:36.249Z,6.10
2019-03-22T06:03:04.994Z,6.10
2019-03-22T06:05:33.541Z,6.10
2019-03-22T06:08:01.993Z,6.00
2019-03-22T06:10:30.533Z,6.00
2019-03-22T06:12:58.987Z,6.10
2019-03-22T06:15:27.429Z,6.10
2019-03-22T06:17:55.909Z,6.10
2019-03-22T06:20:24.358Z,6.10
2019-03-22T06:22:52.804Z,6.10
2019-03-22T06:25:21.284Z,6.10
2019-03-22T06:27:49.818Z,6.20
2019-03-22T06:30:18.273Z,6.10
2019-03-22T06:32:46.734Z,6.10
2019-03-22T06:35:15.207Z,6.10
2019-03-22T06:37:43.644Z,6.10
2019-03-22T06:40:12.256Z,6.00
2019-03-22T06:42:40.726Z,6.10
2019-03-22T06:45:09.509Z,6.20
2019-03-22T06:47:38.279Z,6.30
2019-03-22T06:50:08.191Z,6.20
2019-03-22T06:52:36.633Z,6.20
2019-03-22T06:55:06.645Z,6.20
2019-03-22T06:57:35.097Z,6.30
2019-03-22T07:00:09.062Z,6.20
2019-03-22T07:02:37.702Z,6.30
2019-03-22T07:05:06.998Z,6.40
2019-03-22T07:07:35.451Z,6.40
2019-03-22T07:10:05.765Z,6.50
2019-03-22T07:12:34.216Z,6.60
2019-03-22T07:15:02.720Z,6.70
2019-03-22T07:17:31.190Z,6.80
2019-03-22T07:19:59.642Z,6.90
2019-03-22T07:22:28.171Z,7.00
2019-03-22T07:24:57.041Z,7.10
2019-03-22T07:27:25.510Z,7.20
2019-03-22T07:29:53.956Z,7.20
2019-03-22T07:32:22.803Z,7.20
2019-03-22T07:34:51.283Z,7.30
2019-03-22T07:37:19.724Z,7.30
2019-03-22T07:39:48.171Z,7.50
2019-03-22T07:42:17.690Z,7.50
2019-03-22T07:44:46.363Z,7.60
2019-03-22T07:47:14.833Z,7.60
2019-03-22T07:49:43.280Z,7.70
2019-03-22T07:52:12.204Z,7.70
2019-03-22T07:54:40.650Z,7.80
2019-03-22T07:57:09.461Z,7.90
2019-03-22T07:59:42.953Z,8.00
2019-03-22T08:02:11.501Z,8.00
2019-03-22T08:04:39.954Z,8.10
2019-03-22T08:07:08.810Z,8.20
2019-03-22T08:09:37.338Z,8.30
2019-03-22T08:12:05.853Z,8.30
2019-03-22T08:14:34.390Z,8.40
2019-03-22T08:17:03.185Z,8.50
2019-03-22T08:19:31.626Z,8.70
2019-03-22T08:22:00.530Z,8.70
2019-03-22T08:24:29.029Z,8.80
2019-03-22T08:26:57.494Z,8.90
2019-03-22T08:29:25.970Z,9.00
2019-03-22T08:31:54.454Z,9.10
2019-03-22T08:34:23.235Z,9.30
2019-03-22T08:36:51.805Z,9.40
2019-03-22T08:39:20.262Z,9.40
2019-03-22T08:41:48.791Z,9.60
2019-03-22T08:44:17.238Z,9.70
2019-03-22T08:46:46.045Z,9.80
2019-03-22T08:49:14.640Z,9.90
2019-03-22T08:51:43.537Z,10.00
2019-03-22T08:54:12.441Z,10.00
2019-03-22T08:56:40.955Z,10.10
2019-03-22T08:59:09.416Z,10.20
2019-03-22T09:01:38.255Z,10.30
2019-03-22T09:04:06.737Z,10.40
2019-03-22T09:06:35.267Z,10.50
2019-03-22T09:09:05.629Z,10.50
2019-03-22T09:11:34.179Z,10.60
2019-03-22T09:14:02.644Z,10.70
2019-03-22T09:16:31.168Z,10.70
2019-03-22T09:18:59.689Z,10.80
2019-03-22T09:21:28.194Z,10.90
2019-03-22T09:23:56.693Z,11.00
2019-03-22T09:26:25.523Z,11.10
2019-03-22T09:28:53.976Z,11.20
2019-03-22T09:31:22.577Z,11.30
2019-03-22T09:33:51.384Z,11.40
2019-03-22T09:36:19.831Z,11.40
2019-03-22T09:38:48.276Z,11.50
2019-03-22T09:41:16.920Z,11.50
2019-03-22T09:43:45.499Z,11.60
2019-03-22T09:46:14.267Z,11.70
2019-03-22T09:48:42.770Z,11.80
2019-03-22T09:51:11.312Z,11.90
2019-03-22T09:53:39.828Z,12.00
2019-03-22T09:56:08.750Z,12.10
2019-03-22T09:58:37.518Z,12.10
2019-03-22T10:01:06.477Z,12.20
2019-03-22T10:03:35.069Z,12.30
2019-03-22T10:06:03.927Z,12.40
2019-03-22T10:08:32.456Z,12.50
2019-03-22T10:11:00.958Z,12.60
2019-03-22T10:13:29.512Z,12.70
2019-03-22T10:15:58.078Z,12.80
2019-03-22T10:18:26.922Z,13.00
2019-03-22T10:20:55.728Z,13.10
2019-03-22T10:23:24.592Z,13.20
2019-03-22T10:25:53.476Z,13.30
2019-03-22T10:28:21.954Z,13.40
2019-03-22T10:30:50.403Z,13.60
2019-03-22T10:33:22.980Z,13.70
2019-03-22T10:35:49.066Z,13.90
2019-03-22T10:38:30.697Z,14.20
2019-03-22T10:40:48.050Z,14.30
2019-03-22T10:43:16.620Z,14.40
2019-03-22T10:45:45.406Z,14.40
2019-03-22T10:48:13.987Z,14.50
2019-03-22T10:50:42.501Z,14.60
2019-03-22T10:53:11.044Z,14.70
2019-03-22T10:55:39.856Z,14.70
2019-03-22T10:58:20.409Z,14.80
2019-03-22T11:00:38.543Z,14.80
2019-03-22T11:03:07.036Z,14.90
2019-03-22T11:05:35.517Z,15.10
2019-03-22T11:08:04.410Z,15.30
2019-03-22T11:10:32.885Z,15.30
2019-03-22T11:13:01.704Z,15.40
2019-03-22T11:15:30.161Z,15.60
2019-03-22T11:17:59.157Z,15.70
2019-03-22T11:20:27.712Z,15.90
2019-03-22T11:22:56.241Z,16.00
2019-03-22T11:25:24.771Z,16.20
2019-03-22T11:27:53.598Z,16.40
2019-03-22T11:30:22.158Z,16.60
2019-03-22T11:32:50.606Z,16.70
2019-03-22T11:35:19.442Z,16.80
2019-03-22T11:37:47.913Z,16.80
2019-03-22T11:40:17.818Z,16.90
2019-03-22T11:42:46.339Z,17.10
2019-03-22T11:45:20.658Z,17.20
2019-03-22T11:47:49.175Z,17.20
2019-03-22T11:50:17.961Z,17.30
2019-03-22T11:53:05.792Z,17.40
2019-03-22T11:55:34.238Z,17.40
2019-03-22T11:58:02.782Z,17.50
2019-03-22T12:00:31.356Z,17.50
2019-03-22T12:02:59.805Z,17.50
2019-03-22T12:05:28.418Z,17.50
2019-03-22T12:07:57.158Z,17.40
2019-03-22T12:10:26.051Z,17.50
2019-03-22T12:12:54.817Z,17.50
2019-03-22T12:15:23.812Z,17.40
2019-03-22T12:17:52.344Z,17.40
2019-03-22T12:20:22.549Z,17.40
2019-03-22T12:22:51.270Z,17.50
2019-03-22T12:25:25.766Z,17.50
2019-03-22T12:27:54.361Z,17.60
2019-03-22T12:30:22.881Z,17.70
2019-03-22T12:32:51.400Z,17.80
2019-03-22T12:35:20.482Z,17.90
2019-03-22T12:37:49.350Z,18.00
2019-03-22T12:40:20.913Z,18.10
2019-03-22T12:42:49.905Z,18.20
2019-03-22T12:45:27.044Z,18.20
2019-03-22T12:47:55.630Z,18.40
2019-03-22T12:50:24.616Z,18.50
2019-03-22T12:52:53.157Z,18.60
2019-03-22T12:55:23.137Z,18.70
2019-03-22T12:57:51.577Z,18.80
2019-03-22T13:00:24.880Z,19.00
2019-03-22T13:02:53.628Z,19.10
2019-03-22T13:05:22.972Z,19.20
2019-03-22T13:07:52.037Z,19.20
2019-03-22T13:10:27.736Z,19.20
2019-03-22T13:12:56.353Z,19.30
2019-03-22T13:15:25.238Z,19.20
2019-03-22T13:17:53.691Z,19.40
2019-03-22T13:20:22.225Z,19.40
2019-03-22T13:22:51.011Z,19.40
2019-03-22T13:25:21.213Z,19.60
2019-03-22T13:27:49.889Z,19.80
2019-03-22T13:30:30.478Z,20.00
2019-03-22T13:32:59.187Z,20.30
2019-03-22T13:35:27.693Z,20.40
2019-03-22T13:37:56.172Z,20.40
2019-03-22T13:40:24.693Z,20.50
2019-03-22T13:42:53.285Z,20.60
2019-03-22T13:45:21.762Z,20.70
2019-03-22T13:47:50.212Z,20.70
2019-03-22T13:50:18.810Z,20.60
2019-03-22T13:52:47.278Z,20.60
2019-03-22T13:55:15.830Z,20.50
2019-03-22T13:57:44.707Z,20.40
2019-03-22T14:00:15.455Z,20.30
2019-03-22T14:02:43.906Z,20.30
2019-03-22T14:05:13.113Z,20.20
2019-03-22T14:07:41.884Z,19.90
2019-03-22T14:10:13.481Z,19.90
2019-03-22T14:12:41.957Z,20.00
2019-03-22T14:15:10.809Z,20.20
2019-03-22T14:17:39.261Z,20.30
2019-03-22T14:20:11.444Z,20.40
2019-03-22T14:22:37.973Z,20.60
2019-03-22T14:25:06.713Z,20.90
2019-03-22T14:27:35.166Z,21.00
2019-03-22T14:30:06.353Z,21.20
2019-03-22T14:32:34.901Z,21.40
2019-03-22T14:35:04.281Z,21.60
2019-03-22T14:37:32.800Z,21.60
2019-03-22T14:40:01.297Z,21.40
2019-03-22T14:42:29.798Z,21.40
2019-03-22T14:44:58.245Z,21.50
2019-03-22T14:47:26.725Z,21.70
2019-03-22T14:49:55.173Z,21.90
2019-03-22T14:52:23.961Z,21.90
2019-03-22T14:54:52.445Z,21.80
2019-03-22T14:57:21.337Z,21.80
2019-03-22T14:59:58.557Z,21.80
2019-03-22T15:02:20.062Z,21.80
2019-03-22T15:04:48.561Z,21.70
2019-03-22T15:07:19.972Z,21.70
2019-03-22T15:09:47.209Z,21.70
2019-03-22T15:12:15.749Z,21.70
2019-03-22T15:14:48.913Z,21.70
2019-03-22T15:17:22.017Z,21.60
2019-03-22T15:19:55.279Z,21.50
2019-03-22T15:22:31.283Z,21.50
2019-03-22T15:25:07.293Z,21.40
2019-03-22T15:27:53.969Z,21.30
2019-03-22T15:30:33.546Z,21.10
2019-03-22T15:33:06.337Z,21.10
2019-03-22T15:35:53.073Z,21.10
2019-03-22T15:38:39.995Z,21.10
2019-03-22T15:41:08.563Z,21.10
2019-03-22T15:43:37.014Z,21.20
2019-03-22T15:46:05.495Z,21.30
2019-03-22T15:48:34.382Z,21.40
2019-03-22T15:51:03.301Z,21.50
2019-03-22T15:53:31.766Z,21.60
2019-03-22T15:56:00.224Z,21.70
2019-03-22T15:58:29.028Z,21.90
2019-03-22T16:00:57.492Z,22.00
2019-03-22T16:03:25.970Z,22.00
2019-03-22T16:05:54.770Z,22.00
2019-03-22T16:08:23.289Z,21.90
2019-03-22T16:10:52.053Z,21.80
2019-03-22T16:13:20.571Z,21.70
2019-03-22T16:15:49.051Z,21.50
2019-03-22T16:18:17.502Z,21.20
2019-03-22T16:20:45.992Z,21.00
2019-03-22T16:23:16.073Z,20.80
2019-03-22T16:25:44.533Z,20.50
2019-03-22T16:28:13.234Z,20.10
2019-03-22T16:30:41.681Z,19.70
2019-03-22T16:33:10.438Z,19.10
2019-03-22T16:35:38.910Z,18.70
2019-03-22T16:38:07.352Z,18.20
2019-03-22T16:40:35.829Z,17.80
2019-03-22T16:43:04.730Z,17.40
2019-03-22T16:45:38.713Z,17.10
2019-03-22T16:48:07.329Z,17.00
2019-03-22T16:50:35.776Z,16.70
2019-03-22T16:53:04.755Z,16.60
2019-03-22T16:55:33.222Z,16.40
2019-03-22T16:58:01.681Z,16.40
2019-03-22T17:00:30.171Z,16.20
2019-03-22T17:02:58.702Z,16.00
2019-03-22T17:05:27.153Z,15.90
2019-03-22T17:07:55.606Z,15.80
2019-03-22T17:10:24.356Z,15.70
2019-03-22T17:12:52.886Z,15.60
2019-03-22T17:15:21.671Z,15.50
2019-03-22T17:17:50.149Z,15.50
2019-03-22T17:20:18.694Z,15.50
2019-03-22T17:22:47.527Z,15.40
2019-03-22T17:25:15.974Z,15.30
2019-03-22T17:27:44.794Z,15.20
2019-03-22T17:30:13.773Z,15.20
2019-03-22T17:32:42.571Z,15.10
2019-03-22T17:35:11.285Z,15.00
2019-03-22T17:37:39.749Z,14.90
2019-03-22T17:40:09.369Z,14.80
2019-03-22T17:42:37.817Z,14.70
2019-03-22T17:45:11.996Z,14.60
2019-03-22T17:47:40.464Z,14.50
2019-03-22T17:50:10.976Z,14.40
2019-03-22T17:52:39.417Z,14.30
2019-03-22T17:55:09.377Z,14.20
2019-03-22T17:57:37.890Z,14.10
2019-03-22T18:00:08.873Z,14.00
2019-03-22T18:02:37.354Z,14.00
2019-03-22T18:05:07.946Z,14.10
2019-03-22T18:07:36.740Z,14.00
2019-03-22T18:10:08.025Z,14.00
2019-03-22T18:12:36.550Z,13.90
2019-03-22T18:15:07.597Z,13.90
2019-03-22T18:17:36.073Z,13.80
2019-03-22T18:20:07.233Z,13.70
2019-03-22T18:22:35.681Z,13.60
2019-03-22T18:25:06.604Z,13.50
2019-03-22T18:27:35.678Z,13.50
2019-03-22T18:30:07.337Z,13.50
2019-03-22T18:32:35.819Z,13.50
2019-03-22T18:35:05.402Z,13.40
2019-03-22T18:37:33.921Z,13.40
2019-03-22T18:40:02.413Z,13.30
2019-03-22T18:42:31.193Z,13.20
2019-03-22T18:44:59.710Z,13.20
2019-03-22T18:47:28.251Z,13.10
2019-03-22T18:49:56.703Z,13.10
2019-03-22T18:52:25.223Z,13.10
2019-03-22T18:54:53.929Z,13.10
2019-03-22T18:57:22.794Z,13.00
2019-03-22T18:59:51.274Z,12.90
2019-03-22T19:02:19.792Z,12.80
2019-03-22T19:04:48.257Z,12.80
2019-03-22T19:07:16.796Z,12.80
2019-03-22T19:09:45.247Z,12.70
2019-03-22T19:12:14.095Z,12.70
2019-03-22T19:14:42.904Z,12.80
2019-03-22T19:17:11.770Z,12.70
2019-03-22T19:19:40.543Z,12.60
2019-03-22T19:22:09.026Z,12.50
2019-03-22T19:24:37.810Z,12.50
2019-03-22T19:27:06.599Z,12.40
2019-03-22T19:29:35.042Z,12.40
2019-03-22T19:32:13.124Z,12.20
2019-03-22T19:34:34.029Z,12.20
2019-03-22T19:37:02.779Z,12.20
2019-03-22T19:39:31.565Z,12.10
2019-03-22T19:42:00.046Z,12.10
2019-03-22T19:44:28.569Z,12.00
2019-03-22T19:46:57.314Z,12.10
2019-03-22T19:49:25.795Z,12.00
2019-03-22T19:51:54.246Z,12.00
2019-03-22T19:54:22.702Z,11.90
2019-03-22T19:56:51.257Z,11.90
2019-03-22T19:59:19.787Z,11.80
2019-03-22T20:01:48.242Z,11.70
2019-03-22T20:04:17.090Z,11.80
2019-03-22T20:06:45.541Z,11.70
2019-03-22T20:09:13.967Z,11.60
2019-03-22T20:11:42.499Z,11.60
2019-03-22T20:14:10.958Z,11.60
2019-03-22T20:16:39.686Z,11.60
2019-03-22T20:19:08.162Z,11.60
2019-03-22T20:21:36.650Z,11.60
2019-03-22T20:24:05.271Z,11.50
2019-03-22T20:26:33.795Z,11.40
2019-03-22T20:29:02.345Z,11.40
2019-03-22T20:31:31.106Z,11.40
2019-03-22T20:34:00.003Z,11.50
2019-03-22T20:36:28.471Z,11.50
2019-03-22T20:38:57.283Z,11.60
2019-03-22T20:41:26.034Z,11.50
2019-03-22T20:43:54.554Z,11.50
2019-03-22T20:46:23.002Z,11.50
2019-03-22T20:48:51.827Z,11.40
2019-03-22T20:51:20.608Z,11.50
2019-03-22T20:53:49.086Z,11.50
2019-03-22T20:56:17.531Z,11.60
2019-03-22T20:58:45.977Z,11.50
2019-03-22T21:01:14.441Z,11.50
2019-03-22T21:03:42.895Z,11.50
2019-03-22T21:06:11.446Z,11.50
2019-03-22T21:08:39.923Z,11.50
2019-03-22T21:11:08.490Z,11.50
2019-03-22T21:13:36.970Z,11.40
2019-03-22T21:16:05.481Z,11.30
2019-03-22T21:18:33.990Z,11.30
2019-03-22T21:21:02.513Z,11.30
2019-03-22T21:23:36.340Z,11.30
2019-03-22T21:26:01.489Z,11.20
2019-03-22T21:28:29.974Z,11.20
2019-03-22T21:30:58.430Z,11.20
2019-03-22T21:33:26.882Z,11.10
2019-03-22T21:35:55.548Z,11.10
2019-03-22T21:38:24.069Z,11.10
2019-03-22T21:40:52.561Z,11.00
2019-03-22T21:43:22.074Z,10.90
2019-03-22T21:45:50.689Z,10.90
2019-03-22T21:48:19.321Z,10.90
2019-03-22T21:50:47.874Z,10.90
2019-03-22T21:53:16.410Z,10.90
2019-03-22T21:55:45.398Z,10.90
2019-03-22T21:58:14.303Z,10.90
2019-03-22T22:00:42.847Z,10.90
2019-03-22T22:03:11.788Z,10.80
2019-03-22T22:05:47.906Z,10.70
2019-03-22T22:08:10.549Z,10.80
2019-03-22T22:10:39.066Z,10.70
2019-03-22T22:13:07.514Z,10.70
2019-03-22T22:15:36.127Z,10.70
2019-03-22T22:18:04.899Z,10.60
2019-03-22T22:20:33.438Z,10.60
2019-03-22T22:23:01.957Z,10.60
2019-03-22T22:25:30.481Z,10.60
2019-03-22T22:27:59.608Z,10.50
2019-03-22T22:30:28.178Z,10.40
2019-03-22T22:32:56.765Z,10.40
2019-03-22T22:35:25.670Z,10.40
2019-03-22T22:37:54.225Z,10.40
2019-03-22T22:40:22.749Z,10.40
2019-03-22T22:42:51.223Z,10.30
2019-03-22T22:45:20.045Z,10.30
2019-03-22T22:47:48.821Z,10.20
2019-03-22T22:50:17.270Z,10.20
2019-03-22T22:52:46.093Z,10.10
2019-03-22T22:55:14.613Z,10.10
2019-03-22T22:57:43.069Z,10.10
2019-03-22T23:00:14.080Z,10.00
2019-03-22T23:02:43.130Z,10.00
2019-03-22T23:05:11.660Z,10.00
2019-03-22T23:07:41.029Z,9.90
2019-03-22T23:10:09.617Z,9.90
2019-03-22T23:12:38.062Z,9.90
2019-03-22T23:15:07.992Z,10.00
2019-03-22T23:17:36.534Z,10.00
2019-03-22T23:20:07.542Z,9.90
2019-03-22T23:22:35.985Z,9.90
2019-03-22T23:25:06.391Z,9.90
2019-03-22T23:27:35.107Z,9.90
2019-03-22T23:30:05.358Z,9.90
2019-03-22T23:32:34.174Z,9.90
2019-03-22T23:35:02.692Z,9.80
2019-03-22T23:37:31.142Z,9.80
2019-03-22T23:39:59.949Z,9.70
2019-03-22T23:42:28.393Z,9.70
2019-03-22T23:44:56.861Z,9.80
2019-03-22T23:47:25.311Z,9.70
2019-03-22T23:49:54.014Z,9.80
2019-03-22T23:52:22.482Z,9.70
2019-03-22T23:54:50.961Z,9.70
2019-03-22T23:57:19.690Z,9.70
2019-03-22T23:59:48.405Z,9.80
